createdAt,value
2023-04-29T00:00:17.426Z,6.50
2023-04-29T00:01:17.524Z,6.80
2023-04-29T00:02:17.635Z,6.80
2023-04-29T00:03:17.985Z,6.80
2023-04-29T00:04:18.067Z,6.50
2023-04-29T00:05:18.279Z,6.40
2023-04-29T00:06:18.263Z,6.90
2023-04-29T00:07:18.234Z,6.70
2023-04-29T00:08:18.340Z,6.70
2023-04-29T00:09:18.410Z,6.50
2023-04-29T00:10:18.509Z,6.80
2023-04-29T00:11:18.575Z,6.40
2023-04-29T00:12:18.773Z,6.50
2023-04-29T00:13:18.864Z,6.80
2023-04-29T00:14:18.928Z,6.60
2023-04-29T00:15:19.014Z,6.80
2023-04-29T00:16:19.107Z,6.20
2023-04-29T00:17:19.178Z,6.60
2023-04-29T00:18:19.396Z,6.80
2023-04-29T00:19:19.456Z,6.50
2023-04-29T00:20:19.650Z,6.80
2023-04-29T00:21:19.724Z,6.50
2023-04-29T00:22:19.820Z,6.90
2023-04-29T00:23:19.894Z,6.20
2023-04-29T00:24:19.991Z,6.60
2023-04-29T00:25:20.073Z,6.50
2023-04-29T00:26:20.203Z,6.50
2023-04-29T00:27:20.256Z,6.80
2023-04-29T00:28:20.462Z,6.80
2023-04-29T00:29:20.537Z,6.60
2023-04-29T00:30:20.643Z,6.60
2023-04-29T00:31:20.704Z,7.10
2023-04-29T00:32:20.812Z,6.90
2023-04-29T00:33:20.901Z,6.70
2023-04-29T00:34:20.990Z,7.10
2023-04-29T00:35:21.060Z,7.10
2023-04-29T00:36:21.277Z,6.60
2023-04-29T00:37:21.337Z,6.90
2023-04-29T00:38:21.559Z,6.80
2023-04-29T00:39:21.635Z,7.00
2023-04-29T00:40:21.731Z,6.90
2023-04-29T00:41:21.821Z,6.40
2023-04-29T00:42:21.906Z,6.70
2023-04-29T00:43:21.977Z,6.70
2023-04-29T00:44:22.066Z,7.20
2023-04-29T00:45:22.143Z,7.10
2023-04-29T00:46:22.333Z,6.60
2023-04-29T00:47:22.461Z,6.90
2023-04-29T00:48:22.532Z,6.90
2023-04-29T00:49:22.613Z,7.30
2023-04-29T00:50:22.710Z,7.30
2023-04-29T00:51:22.779Z,6.50
2023-04-29T00:52:22.956Z,6.40
2023-04-29T00:53:23.089Z,7.10
2023-04-29T00:54:23.162Z,6.50
2023-04-29T00:55:23.255Z,7.00
2023-04-29T00:56:23.421Z,6.90
2023-04-29T00:57:23.493Z,7.00
2023-04-29T00:58:23.691Z,6.50
2023-04-29T00:59:23.764Z,7.10
2023-04-29T01:00:23.831Z,6.90
2023-04-29T01:01:23.928Z,6.70
2023-04-29T01:02:24.085Z,6.90
2023-04-29T01:03:24.215Z,7.30
2023-04-29T01:04:24.272Z,7.20
2023-04-29T01:05:24.296Z,7.40
2023-04-29T01:06:24.485Z,7.60
2023-04-29T01:07:24.542Z,7.60
2023-04-29T01:08:24.735Z,8.30
2023-04-29T01:09:24.844Z,9.40
2023-04-29T01:10:24.925Z,16.20
2023-04-29T01:11:25.006Z,20.80
2023-04-29T01:12:25.107Z,25.20
2023-04-29T01:13:25.202Z,32.70
2023-04-29T01:14:25.278Z,34.10
2023-04-29T01:15:25.347Z,36.40
2023-04-29T01:16:25.492Z,40.20
2023-04-29T01:17:25.555Z,39.60
2023-04-29T01:18:25.740Z,43.50
2023-04-29T01:19:25.820Z,47.30
2023-04-29T01:20:25.902Z,47.40
2023-04-29T01:21:25.973Z,49.10
2023-04-29T01:22:26.052Z,50.10
2023-04-29T01:23:26.246Z,54.00
2023-04-29T01:24:26.281Z,52.30
2023-04-29T01:25:26.360Z,46.80
2023-04-29T01:26:26.563Z,47.10
2023-04-29T01:27:26.663Z,52.70
2023-04-29T01:28:26.774Z,53.40
2023-04-29T01:29:26.843Z,54.70
2023-04-29T01:30:27.054Z,52.20
2023-04-29T01:31:27.166Z,50.90
2023-04-29T01:32:27.304Z,48.30
2023-04-29T01:33:27.372Z,42.50
2023-04-29T01:34:27.466Z,46.00
2023-04-29T01:35:27.529Z,53.70
2023-04-29T01:36:27.733Z,59.40
2023-04-29T01:37:27.796Z,61.30
2023-04-29T01:38:27.907Z,59.50
2023-04-29T01:39:27.993Z,60.80
2023-04-29T01:40:28.093Z,62.10
2023-04-29T01:41:28.161Z,65.50
2023-04-29T01:42:28.248Z,67.80
2023-04-29T01:43:28.350Z,69.70
2023-04-29T01:44:28.435Z,68.90
2023-04-29T01:45:28.525Z,68.30
2023-04-29T01:46:28.671Z,66.60
2023-04-29T01:47:28.710Z,67.70
2023-04-29T01:48:28.811Z,69.90
2023-04-29T01:49:28.910Z,69.70
2023-04-29T01:50:29.130Z,69.10
2023-04-29T01:51:29.193Z,69.40
2023-04-29T01:52:29.381Z,69.80
2023-04-29T01:53:29.486Z,69.20
2023-04-29T01:54:29.580Z,68.00
2023-04-29T01:55:29.656Z,71.50
2023-04-29T01:56:29.760Z,71.10
2023-04-29T01:57:29.839Z,76.40
2023-04-29T01:58:29.940Z,73.30
2023-04-29T01:59:31.477Z,72.00
2023-04-29T02:00:30.140Z,73.00
2023-04-29T02:01:30.197Z,71.80
2023-04-29T02:02:30.418Z,71.90
2023-04-29T02:03:30.559Z,72.60
2023-04-29T02:04:30.605Z,74.20
2023-04-29T02:05:30.640Z,75.70
2023-04-29T02:06:30.730Z,72.20
2023-04-29T02:07:30.819Z,74.60
2023-04-29T02:08:30.913Z,73.50
2023-04-29T02:09:31.013Z,77.00
2023-04-29T02:10:31.113Z,77.30
2023-04-29T02:11:31.179Z,77.20
2023-04-29T02:12:31.356Z,73.50
2023-04-29T02:13:31.451Z,74.80
2023-04-29T02:14:31.526Z,76.90
2023-04-29T02:15:31.731Z,76.90
2023-04-29T02:16:31.831Z,77.00
2023-04-29T02:17:31.931Z,71.10
2023-04-29T02:18:31.981Z,76.80
2023-04-29T02:19:32.102Z,74.20
2023-04-29T02:20:32.158Z,72.60
2023-04-29T02:21:32.372Z,75.10
2023-04-29T02:22:32.450Z,76.30
2023-04-29T02:23:32.643Z,77.70
2023-04-29T02:24:32.726Z,77.30
2023-04-29T02:25:32.840Z,75.50
2023-04-29T02:26:32.887Z,79.20
2023-04-29T02:27:32.969Z,86.50
2023-04-29T02:28:33.075Z,86.80
2023-04-29T02:29:33.165Z,85.40
2023-04-29T02:30:33.249Z,90.20
2023-04-29T02:31:33.475Z,94.90
2023-04-29T02:32:33.684Z,93.90
2023-04-29T02:33:33.658Z,90.90
2023-04-29T02:34:33.760Z,90.80
2023-04-29T02:35:33.823Z,92.40
2023-04-29T02:36:33.914Z,92.10
2023-04-29T02:37:33.988Z,92.20
2023-04-29T02:38:34.093Z,93.00
2023-04-29T02:39:34.190Z,96.50
2023-04-29T02:40:34.313Z,98.00
2023-04-29T02:41:34.396Z,93.60
2023-04-29T02:42:34.473Z,94.80
2023-04-29T02:43:34.569Z,97.60
2023-04-29T02:44:34.644Z,100.80
2023-04-29T02:45:34.761Z,99.40
2023-04-29T02:46:34.821Z,99.30
2023-04-29T02:47:34.913Z,100.90
2023-04-29T02:48:34.983Z,99.30
2023-04-29T02:49:35.092Z,98.50
2023-04-29T02:50:35.183Z,97.50
2023-04-29T02:51:35.375Z,98.60
2023-04-29T02:52:35.453Z,96.50
2023-04-29T02:53:35.648Z,96.30
2023-04-29T02:54:35.731Z,98.70
2023-04-29T02:55:35.819Z,100.00
2023-04-29T02:56:35.895Z,102.80
2023-04-29T02:57:35.972Z,99.80
2023-04-29T02:58:36.069Z,101.20
2023-04-29T02:59:36.161Z,99.90
2023-04-29T03:00:36.244Z,102.30
2023-04-29T03:01:36.360Z,100.90
2023-04-29T03:02:36.553Z,99.80
2023-04-29T03:03:36.656Z,99.10
2023-04-29T03:04:36.631Z,101.40
2023-04-29T03:05:36.821Z,102.20
2023-04-29T03:06:36.908Z,101.60
2023-04-29T03:07:37.014Z,99.90
2023-04-29T03:08:37.178Z,100.80
2023-04-29T03:09:37.280Z,101.00
2023-04-29T03:10:39.223Z,101.10
2023-04-29T03:11:37.480Z,101.00
2023-04-29T03:12:37.582Z,102.10
2023-04-29T03:13:37.699Z,99.90
2023-04-29T03:14:37.799Z,102.10
2023-04-29T03:15:37.896Z,102.40
2023-04-29T03:16:38.010Z,102.60
2023-04-29T03:17:38.206Z,102.90
2023-04-29T03:18:38.307Z,101.60
2023-04-29T03:19:38.428Z,99.60
2023-04-29T03:20:38.535Z,102.80
2023-04-29T03:21:38.594Z,102.90
2023-04-29T03:22:38.686Z,106.70
2023-04-29T03:23:38.792Z,107.20
2023-04-29T03:24:38.882Z,105.90
2023-04-29T03:25:39.029Z,106.50
2023-04-29T03:26:39.080Z,106.80
2023-04-29T03:27:39.164Z,105.60
2023-04-29T03:28:39.378Z,107.50
2023-04-29T03:29:39.391Z,109.20
2023-04-29T03:30:39.627Z,109.10
2023-04-29T03:31:39.708Z,109.10
2023-04-29T03:32:39.833Z,107.80
2023-04-29T03:33:39.966Z,109.20
2023-04-29T03:34:40.132Z,109.60
2023-04-29T03:35:40.153Z,110.70
2023-04-29T03:36:40.254Z,109.70
2023-04-29T03:37:40.358Z,107.60
2023-04-29T03:38:40.436Z,107.80
2023-04-29T03:39:40.642Z,106.90
2023-04-29T03:40:40.718Z,109.70
2023-04-29T03:41:40.825Z,107.70
2023-04-29T03:42:40.913Z,109.60
2023-04-29T03:43:41.055Z,109.90
2023-04-29T03:44:41.107Z,110.60
2023-04-29T03:45:41.205Z,110.20
2023-04-29T03:46:41.476Z,110.30
2023-04-29T03:47:41.531Z,109.30
2023-04-29T03:48:41.520Z,111.90
2023-04-29T03:49:41.610Z,112.40
2023-04-29T03:50:41.693Z,112.40
2023-04-29T03:51:41.778Z,113.30
2023-04-29T03:52:41.866Z,112.50
2023-04-29T03:53:41.954Z,113.00
2023-04-29T03:54:42.025Z,114.20
2023-04-29T03:55:42.150Z,115.60
2023-04-29T03:56:42.211Z,114.00
2023-04-29T03:57:42.754Z,112.50
2023-04-29T03:58:42.542Z,112.60
2023-04-29T03:59:42.627Z,114.70
2023-04-29T04:00:42.718Z,114.40
2023-04-29T04:01:42.845Z,113.70
2023-04-29T04:02:43.117Z,119.00
2023-04-29T04:03:43.214Z,112.30
2023-04-29T04:04:43.432Z,113.30
2023-04-29T04:05:43.268Z,114.90
2023-04-29T04:06:43.338Z,116.70
2023-04-29T04:07:43.420Z,117.80
2023-04-29T04:08:43.505Z,119.10
2023-04-29T04:09:43.588Z,118.20
2023-04-29T04:10:43.681Z,115.80
2023-04-29T04:11:43.770Z,120.10
2023-04-29T04:12:44.377Z,116.60
2023-04-29T04:13:43.960Z,112.80
2023-04-29T04:14:44.049Z,116.40
2023-04-29T04:15:44.236Z,116.80
2023-04-29T04:16:44.349Z,113.60
2023-04-29T04:17:44.409Z,117.50
2023-04-29T04:18:44.486Z,116.10
2023-04-29T04:19:44.580Z,116.20
2023-04-29T04:20:44.656Z,114.70
2023-04-29T04:21:44.845Z,115.20
2023-04-29T04:22:44.939Z,114.30
2023-04-29T04:23:45.058Z,115.30
2023-04-29T04:24:45.118Z,116.60
2023-04-29T04:25:45.186Z,113.20
2023-04-29T04:26:45.253Z,112.90
2023-04-29T04:27:45.437Z,112.30
2023-04-29T04:28:45.556Z,114.30
2023-04-29T04:29:45.636Z,111.50
2023-04-29T04:30:45.737Z,113.50
2023-04-29T04:31:47.191Z,114.30
2023-04-29T04:32:46.034Z,111.30
2023-04-29T04:33:46.103Z,112.80
2023-04-29T04:34:46.189Z,113.60
2023-04-29T04:35:46.295Z,110.10
2023-04-29T04:36:46.371Z,110.70
2023-04-29T04:37:46.439Z,110.90
2023-04-29T04:38:46.536Z,109.50
2023-04-29T04:39:46.618Z,109.80
2023-04-29T04:40:46.690Z,110.40
2023-04-29T04:41:46.781Z,110.20
2023-04-29T04:42:46.858Z,114.10
2023-04-29T04:43:46.984Z,112.30
2023-04-29T04:44:47.058Z,108.50
2023-04-29T04:45:47.171Z,112.50
2023-04-29T04:46:47.243Z,109.10
2023-04-29T04:47:47.348Z,111.00
2023-04-29T04:48:47.421Z,111.30
2023-04-29T04:49:47.488Z,112.90
2023-04-29T04:50:47.559Z,114.40
2023-04-29T04:51:47.760Z,114.60
2023-04-29T04:52:47.808Z,117.90
2023-04-29T04:53:48.024Z,116.00
2023-04-29T04:54:48.077Z,116.90
2023-04-29T04:55:48.251Z,118.40
2023-04-29T04:56:48.328Z,120.40
2023-04-29T04:57:48.403Z,119.50
2023-04-29T04:58:48.474Z,122.20
2023-04-29T04:59:48.569Z,122.00
2023-04-29T05:00:48.752Z,122.50
2023-04-29T05:01:48.803Z,125.20
2023-04-29T05:02:49.045Z,124.60
2023-04-29T05:03:49.169Z,123.60
2023-04-29T05:04:49.192Z,123.50
2023-04-29T05:05:49.273Z,123.90
2023-04-29T05:06:49.341Z,123.10
2023-04-29T05:07:49.413Z,124.50
2023-04-29T05:08:49.506Z,123.20
2023-04-29T05:09:49.605Z,123.70
2023-04-29T05:10:49.660Z,126.70
2023-04-29T05:11:49.750Z,124.50
2023-04-29T05:12:49.822Z,124.90
2023-04-29T05:13:49.913Z,123.80
2023-04-29T05:14:49.983Z,122.90
2023-04-29T05:15:50.165Z,122.90
2023-04-29T05:16:57.541Z,124.70
2023-04-29T05:17:50.420Z,121.30
2023-04-29T05:18:50.480Z,122.20
2023-04-29T05:19:50.818Z,121.40
2023-04-29T05:20:50.678Z,121.50
2023-04-29T05:21:50.790Z,123.50
2023-04-29T05:22:50.841Z,120.10
2023-04-29T05:23:51.039Z,122.20
2023-04-29T05:24:51.123Z,120.80
2023-04-29T05:25:51.221Z,122.80
2023-04-29T05:26:51.283Z,120.90
2023-04-29T05:27:51.484Z,121.40
2023-04-29T05:28:51.571Z,124.10
2023-04-29T05:29:51.825Z,119.80
2023-04-29T05:30:51.803Z,119.70
2023-04-29T05:31:51.855Z,119.70
2023-04-29T05:32:51.956Z,124.40
2023-04-29T05:33:52.024Z,120.70
2023-04-29T05:34:52.090Z,121.90
2023-04-29T05:35:52.165Z,122.10
2023-04-29T05:36:52.248Z,119.40
2023-04-29T05:37:52.458Z,117.90
2023-04-29T05:38:52.534Z,122.30
2023-04-29T05:39:52.957Z,121.20
2023-04-29T05:40:52.721Z,120.60
2023-04-29T05:41:52.803Z,121.30
2023-04-29T05:42:52.910Z,117.00
2023-04-29T05:43:52.984Z,116.60
2023-04-29T05:44:53.062Z,117.10
2023-04-29T05:45:53.239Z,116.90
2023-04-29T05:46:53.291Z,118.80
2023-04-29T05:47:53.369Z,117.60
2023-04-29T05:48:53.452Z,117.20
2023-04-29T05:49:53.791Z,117.00
2023-04-29T05:50:53.621Z,116.30
2023-04-29T05:51:53.718Z,119.10
2023-04-29T05:52:53.786Z,117.70
2023-04-29T05:53:53.877Z,118.90
2023-04-29T05:54:53.943Z,115.00
2023-04-29T05:55:54.026Z,112.60
2023-04-29T05:56:54.100Z,112.70
2023-04-29T05:57:54.277Z,112.50
2023-04-29T05:58:54.391Z,113.20
2023-04-29T05:59:54.638Z,113.50
2023-04-29T06:00:54.592Z,109.90
2023-04-29T06:01:54.787Z,112.30
2023-04-29T06:02:58.791Z,111.40
2023-04-29T06:03:55.256Z,113.00
2023-04-29T06:04:55.393Z,112.80
2023-04-29T06:05:55.404Z,112.10
2023-04-29T06:06:55.321Z,112.30
2023-04-29T06:07:55.410Z,110.30
2023-04-29T06:08:55.491Z,110.00
2023-04-29T06:09:55.618Z,110.20
2023-04-29T06:10:55.651Z,109.70
2023-04-29T06:11:55.831Z,111.30
2023-04-29T06:12:55.940Z,110.10
2023-04-29T06:13:55.999Z,110.50
2023-04-29T06:14:56.076Z,111.50
2023-04-29T06:15:56.168Z,111.90
2023-04-29T06:16:56.208Z,109.90
2023-04-29T06:17:56.295Z,108.00
2023-04-29T06:18:56.469Z,110.10
2023-04-29T06:19:56.528Z,108.90
2023-04-29T06:20:56.699Z,108.60
2023-04-29T06:21:56.780Z,106.20
2023-04-29T06:22:56.840Z,104.40
2023-04-29T06:23:56.922Z,104.10
2023-04-29T06:24:56.989Z,104.80
2023-04-29T06:25:57.062Z,102.10
2023-04-29T06:26:57.136Z,102.80
2023-04-29T06:27:57.206Z,98.00
2023-04-29T06:28:57.395Z,99.60
2023-04-29T06:29:57.468Z,100.60
2023-04-29T06:30:57.530Z,98.80
2023-04-29T06:31:57.631Z,98.00
2023-04-29T06:32:57.681Z,97.60
2023-04-29T06:33:57.743Z,94.40
2023-04-29T06:34:57.818Z,90.70
2023-04-29T06:35:57.884Z,90.50
2023-04-29T06:36:57.950Z,88.30
2023-04-29T06:37:58.020Z,88.00
2023-04-29T06:38:58.124Z,84.20
2023-04-29T06:39:58.176Z,85.20
2023-04-29T06:40:58.229Z,80.60
2023-04-29T06:41:58.303Z,79.10
2023-04-29T06:42:58.397Z,81.20
2023-04-29T06:43:58.484Z,78.10
2023-04-29T06:44:58.574Z,78.60
2023-04-29T06:45:58.669Z,77.10
2023-04-29T06:46:58.817Z,76.40
2023-04-29T06:47:58.868Z,77.70
2023-04-29T06:48:58.946Z,77.00
2023-04-29T06:49:59.032Z,73.40
2023-04-29T06:50:59.129Z,76.30
2023-04-29T06:51:59.207Z,76.00
2023-04-29T06:52:59.291Z,76.30
2023-04-29T06:53:59.416Z,74.00
2023-04-29T06:54:59.508Z,74.00
2023-04-29T06:55:59.558Z,72.80
2023-04-29T06:56:59.641Z,72.70
2023-04-29T06:57:59.695Z,74.90
2023-04-29T06:58:59.936Z,75.80
2023-04-29T07:00:00.067Z,73.50
2023-04-29T07:01:00.196Z,72.50
2023-04-29T07:02:00.205Z,72.20
2023-04-29T07:03:00.493Z,73.70
2023-04-29T07:04:00.650Z,71.30
2023-04-29T07:05:00.560Z,72.70
2023-04-29T07:06:00.646Z,70.90
2023-04-29T07:07:00.694Z,69.40
2023-04-29T07:08:00.753Z,71.20
2023-04-29T07:09:00.958Z,72.40
2023-04-29T07:10:01.041Z,71.60
2023-04-29T07:11:01.096Z,71.40
2023-04-29T07:12:01.162Z,69.50
2023-04-29T07:13:01.260Z,71.80
2023-04-29T07:14:01.336Z,71.10
2023-04-29T07:15:01.416Z,72.90
2023-04-29T07:16:01.482Z,73.10
2023-04-29T07:17:01.608Z,73.80
2023-04-29T07:18:01.817Z,72.30
2023-04-29T07:19:01.842Z,74.00
2023-04-29T07:20:01.909Z,73.50
2023-04-29T07:21:01.972Z,72.40
2023-04-29T07:22:02.030Z,74.20
2023-04-29T07:23:02.221Z,78.00
2023-04-29T07:24:02.342Z,79.30
2023-04-29T07:25:02.408Z,77.80
2023-04-29T07:26:02.460Z,80.10
2023-04-29T07:27:02.636Z,80.60
2023-04-29T07:28:02.820Z,81.30
2023-04-29T07:29:02.895Z,82.60
2023-04-29T07:30:02.964Z,83.90
2023-04-29T07:31:03.155Z,83.70
2023-04-29T07:32:03.138Z,83.30
2023-04-29T07:33:03.258Z,86.00
2023-04-29T07:34:03.293Z,83.60
2023-04-29T07:35:03.354Z,85.90
2023-04-29T07:36:03.418Z,87.20
2023-04-29T07:37:03.501Z,85.30
2023-04-29T07:38:03.576Z,86.10
2023-04-29T07:39:03.669Z,86.70
2023-04-29T07:40:03.736Z,84.40
2023-04-29T07:41:03.915Z,83.50
2023-04-29T07:42:03.983Z,83.70
2023-04-29T07:43:04.174Z,83.40
2023-04-29T07:44:04.253Z,86.50
2023-04-29T07:45:04.333Z,84.00
2023-04-29T07:46:04.431Z,81.30
2023-04-29T07:47:04.498Z,81.90
2023-04-29T07:48:04.599Z,79.00
2023-04-29T07:49:04.704Z,78.00
2023-04-29T07:50:04.771Z,75.00
2023-04-29T07:51:04.981Z,74.50
2023-04-29T07:52:05.058Z,74.80
2023-04-29T07:53:05.132Z,76.90
2023-04-29T07:54:05.235Z,73.40
2023-04-29T07:55:05.314Z,72.40
2023-04-29T07:56:05.382Z,72.20
2023-04-29T07:57:05.476Z,72.80
2023-04-29T07:58:05.561Z,71.80
2023-04-29T07:59:05.653Z,73.10
2023-04-29T08:00:05.767Z,74.30
2023-04-29T08:01:05.817Z,75.90
2023-04-29T08:02:05.885Z,76.80
2023-04-29T08:03:06.126Z,73.10
2023-04-29T08:04:06.261Z,71.50
2023-04-29T08:05:06.577Z,68.60
2023-04-29T08:06:06.382Z,63.10
2023-04-29T08:07:06.428Z,58.60
2023-04-29T08:08:06.517Z,26.90
2023-04-29T08:09:06.646Z,53.00
2023-04-29T08:10:06.735Z,53.10
2023-04-29T08:11:06.825Z,52.30
2023-04-29T08:12:06.904Z,52.50
2023-04-29T08:13:06.993Z,50.90
2023-04-29T08:14:07.097Z,49.20
2023-04-29T08:15:09.581Z,49.80
2023-04-29T08:16:07.356Z,53.10
2023-04-29T08:17:07.403Z,54.10
2023-04-29T08:18:07.590Z,51.10
2023-04-29T08:19:07.718Z,50.00
2023-04-29T08:20:07.792Z,50.40
2023-04-29T08:21:07.964Z,50.00
2023-04-29T08:22:08.020Z,49.10
2023-04-29T08:23:08.113Z,49.70
2023-04-29T08:24:08.336Z,51.70
2023-04-29T08:25:08.310Z,50.40
2023-04-29T08:26:08.389Z,50.80
2023-04-29T08:27:08.596Z,51.30
2023-04-29T08:28:08.647Z,50.90
2023-04-29T08:29:08.723Z,49.90
2023-04-29T08:30:08.802Z,49.20
2023-04-29T08:31:08.924Z,47.90
2023-04-29T08:32:08.968Z,46.20
2023-04-29T08:33:09.045Z,44.80
2023-04-29T08:34:09.129Z,46.50
2023-04-29T08:35:09.213Z,46.90
2023-04-29T08:36:13.158Z,44.10
2023-04-29T08:37:09.461Z,46.40
2023-04-29T08:38:15.982Z,47.20
2023-04-29T08:39:09.756Z,48.70
2023-04-29T08:40:09.803Z,49.60
2023-04-29T08:41:09.885Z,47.30
2023-04-29T08:42:09.960Z,48.30
2023-04-29T08:43:10.285Z,48.00
2023-04-29T08:44:10.094Z,47.60
2023-04-29T08:45:10.173Z,45.70
2023-04-29T08:46:10.254Z,47.60
2023-04-29T08:47:10.441Z,46.30
2023-04-29T08:48:10.778Z,46.90
2023-04-29T08:49:10.637Z,45.40
2023-04-29T08:50:10.742Z,44.80
2023-04-29T08:51:10.796Z,43.90
2023-04-29T08:52:10.872Z,44.90
2023-04-29T08:53:10.943Z,45.20
2023-04-29T08:54:11.030Z,44.50
2023-04-29T08:55:11.128Z,44.20
2023-04-29T08:56:11.190Z,43.30
2023-04-29T08:57:11.288Z,42.50
2023-04-29T08:58:11.417Z,45.30
2023-04-29T08:59:11.472Z,46.70
2023-04-29T09:00:11.559Z,45.70
2023-04-29T09:01:11.702Z,44.00
2023-04-29T09:02:11.750Z,45.10
2023-04-29T09:03:11.926Z,44.60
2023-04-29T09:04:11.970Z,44.50
2023-04-29T09:05:12.048Z,45.20
2023-04-29T09:06:12.115Z,44.90
2023-04-29T09:07:12.195Z,42.60
2023-04-29T09:08:12.274Z,44.60
2023-04-29T09:09:12.360Z,44.20
2023-04-29T09:10:12.442Z,42.80
2023-04-29T09:11:12.548Z,42.70
2023-04-29T09:12:12.610Z,45.30
2023-04-29T09:13:12.679Z,43.00
2023-04-29T09:14:12.772Z,42.90
2023-04-29T09:15:12.870Z,42.10
2023-04-29T09:16:12.995Z,41.10
2023-04-29T09:17:13.044Z,41.20
2023-04-29T09:18:13.136Z,40.40
2023-04-29T09:19:13.222Z,40.70
2023-04-29T09:20:13.297Z,40.10
2023-04-29T09:21:13.388Z,41.80
2023-04-29T09:22:13.469Z,39.00
2023-04-29T09:23:13.551Z,37.90
2023-04-29T09:24:13.668Z,39.70
2023-04-29T09:25:13.748Z,40.10
2023-04-29T09:26:13.821Z,39.70
2023-04-29T09:27:13.958Z,39.30
2023-04-29T09:28:14.117Z,41.00
2023-04-29T09:29:14.361Z,44.00
2023-04-29T09:30:14.225Z,45.60
2023-04-29T09:31:14.356Z,42.80
2023-04-29T09:32:14.390Z,43.50
2023-04-29T09:33:14.454Z,43.30
2023-04-29T09:34:14.782Z,43.60
2023-04-29T09:35:14.671Z,43.80
2023-04-29T09:36:14.750Z,43.40
2023-04-29T09:37:14.846Z,44.00
2023-04-29T09:38:14.927Z,46.10
2023-04-29T09:39:15.044Z,45.40
2023-04-29T09:40:15.077Z,45.60
2023-04-29T09:41:15.148Z,46.70
2023-04-29T09:42:15.217Z,48.30
2023-04-29T09:43:15.322Z,48.70
2023-04-29T09:44:15.430Z,50.10
2023-04-29T09:45:15.498Z,50.00
2023-04-29T09:46:15.594Z,51.50
2023-04-29T09:47:15.680Z,53.10
2023-04-29T09:48:15.766Z,53.30
2023-04-29T09:49:15.851Z,55.90
2023-04-29T09:50:15.913Z,55.80
2023-04-29T09:51:16.232Z,57.10
2023-04-29T09:52:16.155Z,58.00
2023-04-29T09:53:16.226Z,59.70
2023-04-29T09:54:16.313Z,59.70
2023-04-29T09:55:16.370Z,62.60
2023-04-29T09:56:16.484Z,61.90
2023-04-29T09:57:16.576Z,62.50
2023-04-29T09:58:16.640Z,62.70
2023-04-29T09:59:16.743Z,62.20
2023-04-29T10:00:16.856Z,62.50
2023-04-29T10:01:16.963Z,62.30
2023-04-29T10:02:16.995Z,63.40
2023-04-29T10:03:17.134Z,64.20
2023-04-29T10:04:17.253Z,65.80
2023-04-29T10:05:17.552Z,66.40
2023-04-29T10:06:17.444Z,66.80
2023-04-29T10:07:17.820Z,66.10
2023-04-29T10:08:17.586Z,63.80
2023-04-29T10:09:17.783Z,64.30
2023-04-29T10:10:17.870Z,66.60
2023-04-29T10:11:17.956Z,65.40
2023-04-29T10:12:18.045Z,66.40
2023-04-29T10:13:18.116Z,66.40
2023-04-29T10:14:18.247Z,68.10
2023-04-29T10:15:18.324Z,68.30
2023-04-29T10:16:18.434Z,69.00
2023-04-29T10:17:18.488Z,68.10
2023-04-29T10:18:18.564Z,69.60
2023-04-29T10:19:18.690Z,70.50
2023-04-29T10:20:18.752Z,68.40
2023-04-29T10:21:19.024Z,68.20
2023-04-29T10:22:18.904Z,71.20
2023-04-29T10:23:18.976Z,72.80
2023-04-29T10:24:19.054Z,70.80
2023-04-29T10:25:19.143Z,71.20
2023-04-29T10:26:19.193Z,73.00
2023-04-29T10:27:19.278Z,74.80
2023-04-29T10:28:19.372Z,74.80
2023-04-29T10:29:19.473Z,77.60
2023-04-29T10:30:19.589Z,75.00
2023-04-29T10:31:19.657Z,79.10
2023-04-29T10:32:19.673Z,77.30
2023-04-29T10:33:19.894Z,77.50
2023-04-29T10:34:19.975Z,80.80
2023-04-29T10:35:20.125Z,76.90
2023-04-29T10:36:20.225Z,74.80
2023-04-29T10:37:20.297Z,72.80
2023-04-29T10:38:20.364Z,69.80
2023-04-29T10:39:20.433Z,70.30
2023-04-29T10:40:20.482Z,66.60
2023-04-29T10:41:20.561Z,65.10
2023-04-29T10:42:20.621Z,64.30
2023-04-29T10:43:20.672Z,62.00
2023-04-29T10:44:20.851Z,61.30
2023-04-29T10:45:20.941Z,62.00
2023-04-29T10:46:20.987Z,65.40
2023-04-29T10:47:21.224Z,64.00
2023-04-29T10:48:21.184Z,68.50
2023-04-29T10:49:22.514Z,69.20
2023-04-29T10:50:21.344Z,69.40
2023-04-29T10:51:21.441Z,71.60
2023-04-29T10:52:21.486Z,71.80
2023-04-29T10:53:21.558Z,69.30
2023-04-29T10:54:21.668Z,65.20
2023-04-29T10:55:21.723Z,63.60
2023-04-29T10:56:21.892Z,61.10
2023-04-29T10:57:21.996Z,62.00
2023-04-29T10:58:22.040Z,59.00
2023-04-29T10:59:22.168Z,59.20
2023-04-29T11:00:22.251Z,58.60
2023-04-29T11:01:22.373Z,53.80
2023-04-29T11:02:22.446Z,54.50
2023-04-29T11:03:22.606Z,49.30
2023-04-29T11:04:22.788Z,49.10
2023-04-29T11:05:22.876Z,47.80
2023-04-29T11:06:22.943Z,48.40
2023-04-29T11:07:23.007Z,47.00
2023-04-29T11:08:23.116Z,45.30
2023-04-29T11:09:23.157Z,46.80
2023-04-29T11:10:23.233Z,44.20
2023-04-29T11:11:23.348Z,42.50
2023-04-29T11:12:23.617Z,42.60
2023-04-29T11:13:23.471Z,40.30
2023-04-29T11:14:23.560Z,40.40
2023-04-29T11:15:23.619Z,40.50
2023-04-29T11:16:23.755Z,39.20
2023-04-29T11:18:21.934Z,34.60
2023-04-29T11:19:22.102Z,34.80
2023-04-29T11:20:23.852Z,33.00
2023-04-29T11:21:24.020Z,32.60
2023-04-29T11:22:22.490Z,31.40
2023-04-29T11:23:22.568Z,30.30
2023-04-29T11:24:22.725Z,30.10
2023-04-29T11:25:22.820Z,27.90
2023-04-29T11:26:22.884Z,27.20
2023-04-29T11:27:22.983Z,27.80
2023-04-29T11:28:23.065Z,27.60
2023-04-29T11:29:23.198Z,26.80
2023-04-29T11:30:23.273Z,26.20
2023-04-29T11:31:23.425Z,26.40
2023-04-29T11:32:23.574Z,25.40
2023-04-29T11:33:23.646Z,25.50
2023-04-29T11:34:23.697Z,23.90
2023-04-29T11:35:23.786Z,23.60
2023-04-29T11:36:23.851Z,23.30
2023-04-29T11:37:23.944Z,23.30
2023-04-29T11:38:24.032Z,21.60
2023-04-29T11:39:24.109Z,20.90
2023-04-29T11:40:24.197Z,20.90
2023-04-29T11:41:24.300Z,20.30
2023-04-29T11:42:24.383Z,18.70
2023-04-29T11:43:24.457Z,18.10
2023-04-29T11:44:24.532Z,17.80
2023-04-29T11:45:24.630Z,18.50
2023-04-29T11:46:24.714Z,17.80
2023-04-29T11:47:24.886Z,17.00
2023-04-29T11:48:24.924Z,17.80
2023-04-29T11:49:25.110Z,17.10
2023-04-29T11:50:25.194Z,17.10
2023-04-29T11:51:25.273Z,16.60
2023-04-29T11:52:25.328Z,16.30
2023-04-29T11:53:25.487Z,15.90
2023-04-29T11:54:25.598Z,16.20
2023-04-29T11:55:25.691Z,16.20
2023-04-29T11:56:25.896Z,16.40
2023-04-29T11:57:25.963Z,16.60
2023-04-29T11:58:26.025Z,16.40
2023-04-29T11:59:26.238Z,16.10
2023-04-29T12:00:26.355Z,16.20
2023-04-29T12:01:27.408Z,15.90
2023-04-29T12:02:26.716Z,16.20
2023-04-29T12:03:26.835Z,15.70
2023-04-29T12:04:26.939Z,16.40
2023-04-29T12:05:26.986Z,15.70
2023-04-29T12:06:26.941Z,15.80
2023-04-29T12:07:27.008Z,16.30
2023-04-29T12:08:27.074Z,15.80
2023-04-29T12:09:27.173Z,15.90
2023-04-29T12:10:27.251Z,15.70
2023-04-29T12:11:27.356Z,15.40
2023-04-29T12:12:27.486Z,14.70
2023-04-29T12:13:27.568Z,15.00
2023-04-29T12:14:27.685Z,15.70
2023-04-29T12:15:27.754Z,15.90
2023-04-29T12:16:27.875Z,15.50
2023-04-29T12:17:27.931Z,16.00
2023-04-29T12:18:27.999Z,15.60
2023-04-29T12:19:28.109Z,15.10
2023-04-29T12:20:28.209Z,14.70
2023-04-29T12:21:28.270Z,15.10
2023-04-29T12:22:28.361Z,15.00
2023-04-29T12:23:28.567Z,15.20
2023-04-29T12:24:28.546Z,15.40
2023-04-29T12:25:28.640Z,14.90
2023-04-29T12:26:28.737Z,15.10
2023-04-29T12:27:28.832Z,15.70
2023-04-29T12:28:28.946Z,15.50
2023-04-29T12:29:29.041Z,16.00
2023-04-29T12:30:29.119Z,15.70
2023-04-29T12:31:29.275Z,15.40
2023-04-29T12:32:29.308Z,15.10
2023-04-29T12:33:29.421Z,15.50
2023-04-29T12:34:29.475Z,15.20
2023-04-29T12:35:29.597Z,14.40
2023-04-29T12:36:29.673Z,13.80
2023-04-29T12:37:29.876Z,14.10
2023-04-29T12:38:29.980Z,14.00
2023-04-29T12:39:30.088Z,14.30
2023-04-29T12:40:30.452Z,13.90
2023-04-29T12:41:30.245Z,13.30
2023-04-29T12:42:30.355Z,13.50
2023-04-29T12:43:30.440Z,13.70
2023-04-29T12:44:30.553Z,14.10
2023-04-29T12:45:30.612Z,12.70
2023-04-29T12:46:30.706Z,13.50
2023-04-29T12:47:30.809Z,13.60
2023-04-29T12:48:33.257Z,13.10
2023-04-29T12:49:30.968Z,13.10
2023-04-29T12:50:31.058Z,13.50